Time;durP1;ratioP1;P1;durP2;ratioP2;P2;SDS_P1;SDS_P2;PMS_P1;PMS_P2;Temp;Humidity;BMP_temperature;BMP_pressure;BME280_temperature;BME280_humidity;BME280_pressure;Samples;Min_cycle;Max_cycle;Signal;HPM_P1;HPM_P2
2023/06/11 00:01:54;;;;;;;9.88;9.02;;;23.40;93.90;;;;;;6206014;28;89436;-68
2023/06/11 00:04:57;;;;;;;9.75;8.90;;;23.30;94.00;;;;;;6206068;28;89087;-68
2023/06/11 00:08:00;;;;;;;10.27;9.38;;;23.40;93.90;;;;;;6206768;28;89957;-68
2023/06/11 00:11:02;;;;;;;11.05;10.05;;;23.30;94.00;;;;;;6209527;28;90172;-68
2023/06/11 00:14:05;;;;;;;10.60;9.70;;;23.40;94.00;;;;;;6208298;28;89168;-67
2023/06/11 00:17:07;;;;;;;10.48;9.48;;;23.40;94.00;;;;;;6209976;28;88036;-68
2023/06/11 00:20:11;;;;;;;11.25;10.25;;;23.40;94.00;;;;;;6209754;28;89050;-68
2023/06/11 00:23:13;;;;;;;10.77;9.88;;;23.40;94.00;;;;;;6197687;28;88033;-68
2023/06/11 00:26:15;;;;;;;10.35;9.35;;;23.40;94.00;;;;;;6207807;28;89065;-68
2023/06/11 00:29:18;;;;;;;11.00;10.02;;;23.40;94.00;;;;;;6207830;28;88310;-68
2023/06/11 00:32:20;;;;;;;10.57;9.57;;;23.40;94.00;;;;;;6207236;28;89460;-68
2023/06/11 00:35:22;;;;;;;10.75;9.75;;;23.40;94.00;;;;;;6208873;28;89050;-68
2023/06/11 00:38:24;;;;;;;10.80;9.80;;;23.40;93.90;;;;;;6205460;28;90306;-68
2023/06/11 00:41:29;;;;;;;10.52;9.63;;;23.40;93.90;;;;;;6208289;28;89385;-67
2023/06/11 00:44:33;;;;;;;10.43;9.50;;;23.40;93.90;;;;;;6209926;28;89153;-68
2023/06/11 00:47:37;;;;;;;10.70;9.70;;;23.40;93.90;;;;;;6202574;28;89440;-68
2023/06/11 00:50:47;;;;;;;10.88;9.88;;;23.40;93.90;;;;;;6207870;28;89111;-70
2023/06/11 00:53:51;;;;;;;9.98;9.07;;;23.40;93.90;;;;;;6209455;28;89090;-70
2023/06/11 00:56:53;;;;;;;10.65;9.75;;;23.40;93.90;;;;;;6204304;28;89145;-70
2023/06/11 00:59:57;;;;;;;10.13;9.23;;;23.40;93.90;;;;;;6208546;28;88367;-69
2023/06/11 01:03:07;;;;;;;10.73;9.77;;;23.40;93.90;;;;;;6209241;28;87951;-70
2023/06/11 01:06:13;;;;;;;10.88;9.88;;;23.40;93.90;;;;;;6208091;28;89156;-69
2023/06/11 01:09:16;;;;;;;10.15;9.25;;;23.30;93.90;;;;;;6204133;28;90108;-70
2023/06/11 01:12:18;;;;;;;10.07;9.18;;;23.40;94.00;;;;;;6209179;28;90549;-70
2023/06/11 01:15:21;;;;;;;10.40;9.50;;;23.30;93.90;;;;;;6208800;28;89251;-70
2023/06/11 01:18:28;;;;;;;11.05;10.00;;;23.30;93.90;;;;;;6208350;28;89037;-70
2023/06/11 01:21:38;;;;;;;11.10;10.10;;;23.40;94.00;;;;;;6208159;28;89055;-70
2023/06/11 01:24:55;;;;;;;10.52;9.63;;;23.30;94.30;;;;;;6206025;28;89294;-70
2023/06/11 01:28:04;;;;;;;11.30;10.30;;;23.40;94.00;;;;;;6208480;28;89217;-70
2023/06/11 01:31:12;;;;;;;10.07;9.13;;;23.40;93.90;;;;;;6208714;28;88365;-69
2023/06/11 01:34:14;;;;;;;10.50;9.50;;;23.40;93.90;;;;;;6208098;28;89075;-70
2023/06/11 01:37:17;;;;;;;10.27;9.38;;;23.40;93.80;;;;;;6207904;28;89153;-70
2023/06/11 01:40:19;;;;;;;10.45;9.45;;;23.40;93.90;;;;;;6207467;28;90223;-70
2023/06/11 01:43:23;;;;;;;10.57;9.57;;;23.40;93.80;;;;;;6208817;28;88667;-70
2023/06/11 01:46:26;;;;;;;10.75;9.85;;;23.40;93.90;;;;;;6208727;28;88005;-69
2023/06/11 01:49:28;;;;;;;10.25;9.27;;;23.30;93.80;;;;;;6208536;28;88972;-70
2023/06/11 01:52:30;;;;;;;10.98;9.93;;;23.30;93.80;;;;;;6208245;28;87973;-70
2023/06/11 01:55:32;;;;;;;10.43;9.52;;;23.30;93.80;;;;;;6207783;28;89143;-70
2023/06/11 01:58:37;;;;;;;10.63;9.60;;;23.30;93.90;;;;;;6207439;28;88830;-70
2023/06/11 02:01:40;;;;;;;10.23;9.32;;;23.30;93.90;;;;;;6208608;28;88783;-70
2023/06/11 02:04:42;;;;;;;9.65;8.85;;;23.30;93.90;;;;;;6207751;28;90586;-71
2023/06/11 02:07:45;;;;;;;10.23;9.35;;;23.30;93.90;;;;;;6197937;28;89014;-70
2023/06/11 02:10:47;;;;;;;10.90;9.93;;;23.30;93.90;;;;;;6206538;28;89919;-70
2023/06/11 02:13:50;;;;;;;10.70;9.70;;;23.30;93.90;;;;;;6204505;28;89172;-70
2023/06/11 02:16:52;;;;;;;10.32;9.43;;;23.30;93.90;;;;;;6208246;28;89094;-71
2023/06/11 02:19:54;;;;;;;9.85;8.95;;;23.40;93.90;;;;;;6207066;28;89010;-71
2023/06/11 02:22:56;;;;;;;10.70;9.75;;;23.30;93.90;;;;;;6208065;28;88977;-70
2023/06/11 02:25:58;;;;;;;10.00;9.10;;;23.30;93.80;;;;;;6204688;28;89048;-70
2023/06/11 02:29:01;;;;;;;9.45;8.65;;;23.40;93.90;;;;;;6207056;28;89043;-70
2023/06/11 02:32:04;;;;;;;10.25;9.25;;;23.40;93.80;;;;;;6206837;28;88649;-70
2023/06/11 02:35:08;;;;;;;10.27;9.30;;;23.40;93.80;;;;;;6207237;28;88043;-71
2023/06/11 02:38:10;;;;;;;10.30;9.40;;;23.40;93.80;;;;;;6196431;28;89128;-70
2023/06/11 02:41:12;;;;;;;10.05;9.15;;;23.30;93.80;;;;;;6205743;28;89964;-70
2023/06/11 02:44:15;;;;;;;10.23;9.32;;;23.30;93.80;;;;;;6205480;28;89047;-71
2023/06/11 02:47:17;;;;;;;9.68;8.80;;;23.40;93.80;;;;;;6208031;28;89017;-71
2023/06/11 02:50:19;;;;;;;10.02;9.15;;;23.30;93.80;;;;;;6208057;28;89350;-70
2023/06/11 02:53:21;;;;;;;9.85;8.95;;;23.40;93.90;;;;;;6206356;28;88938;-70
2023/06/11 02:56:23;;;;;;;9.38;8.57;;;23.30;93.80;;;;;;6205893;28;89115;-70
2023/06/11 02:59:26;;;;;;;8.90;8.10;;;23.30;93.80;;;;;;6205499;28;89060;-70
2023/06/11 03:02:28;;;;;;;9.23;8.43;;;23.30;93.90;;;;;;6206520;28;88319;-70
2023/06/11 03:05:30;;;;;;;10.00;9.00;;;23.30;93.90;;;;;;6206386;28;89555;-70
2023/06/11 03:08:32;;;;;;;10.95;9.88;;;23.30;93.80;;;;;;6206203;28;89117;-71
2023/06/11 03:11:34;;;;;;;9.63;8.82;;;23.30;93.80;;;;;;6195139;28;89939;-71
2023/06/11 03:14:37;;;;;;;9.82;8.93;;;23.30;93.80;;;;;;6206968;28;89075;-70
2023/06/11 03:17:39;;;;;;;9.55;8.75;;;23.30;93.80;;;;;;6195043;28;89355;-71
2023/06/11 03:20:41;;;;;;;9.45;8.65;;;23.30;93.80;;;;;;6204917;28;89148;-70
2023/06/11 03:23:43;;;;;;;9.15;8.35;;;23.30;93.80;;;;;;6206165;28;88140;-70
2023/06/11 03:26:45;;;;;;;9.95;9.05;;;23.30;93.80;;;;;;6202859;28;89059;-70
2023/06/11 03:29:49;;;;;;;10.63;9.63;;;23.30;93.80;;;;;;6187382;28;89219;-69
2023/06/11 03:32:51;;;;;;;9.65;8.75;;;23.30;93.80;;;;;;6207585;28;88311;-70
2023/06/11 03:35:52;;;;;;;9.75;8.90;;;23.30;93.80;;;;;;6207328;28;89323;-70
2023/06/11 03:38:54;;;;;;;9.30;8.50;;;23.30;93.80;;;;;;6207273;28;89091;-69
2023/06/11 03:41:56;;;;;;;9.43;8.63;;;23.30;93.80;;;;;;6192990;28;90096;-70
2023/06/11 03:45:00;;;;;;;9.38;8.57;;;23.30;93.80;;;;;;6204615;28;88044;-69
2023/06/11 03:48:04;;;;;;;8.80;8.05;;;23.30;93.90;;;;;;6205865;28;89364;-69
2023/06/11 03:51:06;;;;;;;8.95;8.15;;;23.30;93.90;;;;;;6205048;28;89377;-70
2023/06/11 03:54:08;;;;;;;8.55;7.75;;;23.30;93.80;;;;;;6205251;28;89031;-69
2023/06/11 03:57:10;;;;;;;9.00;8.10;;;23.40;93.80;;;;;;6206202;28;89023;-70
2023/06/11 04:00:14;;;;;;;9.38;8.57;;;23.30;93.80;;;;;;6206420;28;89181;-69
2023/06/11 04:03:17;;;;;;;9.23;8.43;;;23.30;93.80;;;;;;6206473;28;88282;-70
2023/06/11 04:06:19;;;;;;;9.10;8.30;;;23.40;93.80;;;;;;6205062;28;89213;-70
2023/06/11 04:09:21;;;;;;;8.73;7.97;;;23.30;93.70;;;;;;6192601;28;89409;-70
2023/06/11 04:12:23;;;;;;;8.52;7.72;;;23.30;93.70;;;;;;6202781;28;90005;-70
2023/06/11 04:15:26;;;;;;;8.73;8.02;;;23.30;93.70;;;;;;6201673;28;89148;-69
2023/06/11 04:18:28;;;;;;;9.40;8.60;;;23.30;93.70;;;;;;6186696;28;89134;-70
2023/06/11 04:21:30;;;;;;;9.40;8.50;;;23.30;93.80;;;;;;6205062;28;89019;-70
2023/06/11 04:24:32;;;;;;;9.52;8.65;;;23.30;93.80;;;;;;6206191;28;89087;-69
2023/06/11 04:27:36;;;;;;;9.35;8.48;;;23.30;93.80;;;;;;6205724;28;88991;-70
2023/06/11 04:30:40;;;;;;;9.13;8.27;;;23.30;93.80;;;;;;6204814;28;89189;-70
2023/06/11 04:33:42;;;;;;;8.77;8.05;;;23.30;93.80;;;;;;6205283;28;88742;-70
2023/06/11 04:36:44;;;;;;;8.07;7.38;;;23.30;93.80;;;;;;6204748;28;89027;-70
2023/06/11 04:39:46;;;;;;;8.73;7.93;;;23.30;93.80;;;;;;6204914;28;89394;-70
2023/06/11 04:42:48;;;;;;;8.93;8.13;;;23.30;93.90;;;;;;6204351;28;90037;-70
2023/06/11 04:45:55;;;;;;;8.80;8.00;;;23.30;93.80;;;;;;6205043;28;88984;-70
2023/06/11 04:49:00;;;;;;;8.93;8.13;;;23.30;93.90;;;;;;6204715;28;89044;-70
2023/06/11 04:52:02;;;;;;;8.95;8.20;;;23.30;93.90;;;;;;6205306;28;89114;-70
2023/06/11 04:55:04;;;;;;;8.55;7.75;;;23.30;93.80;;;;;;6206331;28;89060;-70
2023/06/11 04:58:07;;;;;;;8.85;8.05;;;23.30;93.80;;;;;;6197085;28;89071;-70
2023/06/11 05:01:12;;;;;;;9.00;8.20;;;23.30;93.80;;;;;;6207863;28;89080;-69
2023/06/11 05:04:14;;;;;;;8.68;7.97;;;23.30;93.80;;;;;;6208355;28;88391;-70
2023/06/11 05:07:17;;;;;;;8.70;7.90;;;23.30;93.80;;;;;;6209652;28;89208;-69
2023/06/11 05:10:19;;;;;;;8.48;7.68;;;23.30;93.80;;;;;;6208914;28;89088;-70
2023/06/11 05:13:24;;;;;;;8.35;7.65;;;23.30;93.80;;;;;;6207757;28;88778;-70
2023/06/11 05:16:28;;;;;;;8.90;8.10;;;23.30;93.80;;;;;;6192492;28;89086;-69
2023/06/11 05:19:30;;;;;;;8.05;7.35;;;23.30;93.90;;;;;;6208433;28;87969;-70
2023/06/11 05:22:32;;;;;;;8.13;7.43;;;23.30;93.90;;;;;;6207023;28;87047;-69
2023/06/11 05:25:35;;;;;;;8.15;7.45;;;23.30;94.00;;;;;;6208115;28;88993;-69
2023/06/11 05:28:37;;;;;;;7.75;7.05;;;23.30;94.00;;;;;;6208387;28;89409;-69
2023/06/11 05:31:41;;;;;;;7.97;7.28;;;23.40;94.00;;;;;;6207915;28;89481;-69
2023/06/11 05:34:43;;;;;;;8.70;7.90;;;23.30;94.00;;;;;;6208904;28;88639;-70
2023/06/11 05:37:45;;;;;;;8.98;8.07;;;23.30;94.00;;;;;;6208409;28;89134;-69
2023/06/11 05:40:47;;;;;;;8.20;7.50;;;23.30;94.00;;;;;;6208758;28;89402;-69
2023/06/11 05:43:49;;;;;;;8.10;7.40;;;23.40;94.00;;;;;;6208305;28;91355;-69
2023/06/11 05:46:52;;;;;;;7.97;7.28;;;23.40;94.00;;;;;;6207918;28;89122;-70
2023/06/11 05:49:55;;;;;;;8.43;7.72;;;23.40;94.00;;;;;;6207815;28;89101;-69
2023/06/11 05:52:57;;;;;;;8.38;7.68;;;23.40;94.00;;;;;;6208232;28;89370;-69
2023/06/11 05:56:03;;;;;;;8.20;7.50;;;23.40;94.00;;;;;;6207916;28;88791;-70
2023/06/11 05:59:05;;;;;;;7.72;7.03;;;23.40;94.00;;;;;;6207776;28;89232;-69
2023/06/11 06:02:08;;;;;;;7.78;7.07;;;23.40;94.00;;;;;;6208219;28;89105;-70
2023/06/11 06:05:10;;;;;;;8.02;7.22;;;23.40;94.00;;;;;;6206012;28;88354;-70
2023/06/11 06:08:12;;;;;;;8.15;7.45;;;23.40;94.00;;;;;;6209221;28;88257;-69
2023/06/11 06:11:14;;;;;;;8.10;7.40;;;23.40;94.00;;;;;;6207027;28;89203;-69
2023/06/11 06:14:16;;;;;;;8.30;7.60;;;23.40;94.00;;;;;;6207337;28;88758;-69
2023/06/11 06:17:20;;;;;;;8.05;7.35;;;23.30;94.00;;;;;;6200504;28;87576;-69
2023/06/11 06:20:22;;;;;;;7.80;7.10;;;23.40;94.00;;;;;;6201753;28;89250;-70
2023/06/11 06:23:24;;;;;;;8.15;7.45;;;23.40;94.00;;;;;;6207536;28;89089;-69
2023/06/11 06:26:26;;;;;;;8.45;7.65;;;23.40;94.40;;;;;;6207519;28;88736;-70
2023/06/11 06:29:28;;;;;;;8.85;8.02;;;23.40;94.00;;;;;;6208214;28;89120;-70
2023/06/11 06:32:32;;;;;;;8.02;7.28;;;23.40;94.00;;;;;;6193822;28;89180;-70
2023/06/11 06:35:34;;;;;;;7.47;6.88;;;23.40;94.00;;;;;;6208580;28;88298;-69
2023/06/11 06:38:36;;;;;;;7.30;6.70;;;23.40;94.00;;;;;;6194615;28;89283;-70
2023/06/11 06:41:38;;;;;;;7.45;6.85;;;23.40;94.00;;;;;;6207360;28;89042;-69
2023/06/11 06:44:40;;;;;;;7.20;6.60;;;23.40;94.00;;;;;;6204964;28;90002;-69
2023/06/11 06:47:43;;;;;;;7.82;7.13;;;23.40;94.00;;;;;;6206805;28;89079;-69
2023/06/11 06:50:45;;;;;;;8.15;7.45;;;23.40;94.00;;;;;;6207149;28;89310;-69
2023/06/11 06:53:48;;;;;;;7.90;7.20;;;23.40;94.00;;;;;;6206724;28;89107;-69
2023/06/11 06:56:50;;;;;;;8.10;7.40;;;23.40;94.00;;;;;;6207876;28;89035;-69
2023/06/11 06:59:52;;;;;;;8.30;7.60;;;23.40;94.00;;;;;;6206831;28;90139;-69
2023/06/11 07:02:55;;;;;;;7.75;7.15;;;23.40;94.00;;;;;;6207816;28;89119;-69
2023/06/11 07:05:57;;;;;;;8.35;7.57;;;23.40;94.00;;;;;;6206452;28;88372;-69
2023/06/11 07:08:59;;;;;;;7.65;7.03;;;23.40;94.00;;;;;;6207154;28;89139;-69
2023/06/11 07:12:01;;;;;;;7.70;7.03;;;23.40;94.00;;;;;;6207457;28;89172;-69
2023/06/11 07:15:04;;;;;;;7.88;7.18;;;23.40;94.00;;;;;;6205048;28;90015;-69
2023/06/11 07:18:08;;;;;;;8.98;8.07;;;23.40;94.00;;;;;;6203327;28;87916;-69
2023/06/11 07:21:10;;;;;;;8.00;7.30;;;23.40;94.00;;;;;;6205397;28;88976;-70
2023/06/11 07:24:12;;;;;;;7.80;7.10;;;23.40;94.00;;;;;;6203730;28;89059;-69
2023/06/11 07:27:14;;;;;;;7.72;7.03;;;23.40;93.90;;;;;;6206088;28;89038;-70
2023/06/11 07:30:16;;;;;;;7.35;6.75;;;23.40;93.90;;;;;;6204708;28;89129;-69
2023/06/11 07:33:20;;;;;;;7.30;6.60;;;23.40;93.90;;;;;;6205713;28;88992;-70
2023/06/11 07:36:21;;;;;;;7.60;6.95;;;23.40;93.90;;;;;;6197938;28;88277;-69
2023/06/11 07:39:23;;;;;;;8.05;7.35;;;23.40;93.90;;;;;;6206020;28;89068;-69
2023/06/11 07:42:25;;;;;;;7.55;6.93;;;23.40;93.90;;;;;;6205720;28;89052;-70
2023/06/11 07:45:27;;;;;;;7.57;6.97;;;23.40;94.00;;;;;;6193085;28;90120;-69
2023/06/11 07:48:31;;;;;;;8.00;7.30;;;23.40;94.00;;;;;;6193387;28;89193;-70
2023/06/11 07:51:33;;;;;;;7.47;6.88;;;23.40;93.90;;;;;;6206443;28;89032;-70
2023/06/11 07:54:35;;;;;;;7.72;7.03;;;23.40;93.90;;;;;;6203879;28;89009;-69
2023/06/11 07:57:37;;;;;;;7.38;6.78;;;23.40;93.90;;;;;;6205745;28;89259;-69
2023/06/11 08:00:39;;;;;;;7.43;6.82;;;23.40;93.90;;;;;;6206586;28;89144;-70
2023/06/11 08:03:43;;;;;;;7.68;6.97;;;23.40;93.90;;;;;;6205500;28;89061;-70
2023/06/11 08:06:45;;;;;;;8.32;7.55;;;23.40;93.90;;;;;;6205689;28;88322;-69
2023/06/11 08:09:47;;;;;;;7.93;7.22;;;23.40;93.90;;;;;;6207094;28;89113;-70
2023/06/11 08:12:49;;;;;;;7.38;6.68;;;23.40;93.80;;;;;;6206502;28;87988;-69
2023/06/11 08:15:51;;;;;;;7.90;7.18;;;23.40;93.90;;;;;;6204080;28;88954;-69
2023/06/11 08:18:55;;;;;;;7.70;7.00;;;23.40;93.80;;;;;;6204595;28;89286;-69
2023/06/11 08:21:57;;;;;;;7.47;6.88;;;23.40;93.80;;;;;;6204175;28;89087;-70
2023/06/11 08:24:59;;;;;;;7.28;6.68;;;23.40;93.80;;;;;;6205741;28;89063;-69
2023/06/11 08:28:01;;;;;;;8.27;7.47;;;23.40;93.80;;;;;;6205198;28;89351;-69
2023/06/11 08:31:03;;;;;;;7.47;6.78;;;23.40;93.80;;;;;;6209793;28;89120;-69
2023/06/11 08:34:07;;;;;;;7.75;7.05;;;23.40;93.80;;;;;;6209869;28;88982;-70
2023/06/11 08:37:09;;;;;;;7.50;6.82;;;23.40;93.90;;;;;;6209654;28;88470;-69
2023/06/11 08:40:12;;;;;;;8.05;7.35;;;23.40;93.80;;;;;;6208665;28;89070;-69
2023/06/11 08:43:14;;;;;;;7.70;7.00;;;23.40;93.80;;;;;;6210069;28;89317;-69
2023/06/11 08:46:16;;;;;;;7.63;7.03;;;23.40;93.80;;;;;;6208157;28;90034;-69
2023/06/11 08:49:22;;;;;;;7.32;6.70;;;23.40;93.80;;;;;;6209816;28;89054;-69
2023/06/11 08:52:27;;;;;;;8.07;7.32;;;23.40;93.90;;;;;;6208270;28;89428;-69
2023/06/11 08:55:29;;;;;;;7.90;7.20;;;23.40;93.90;;;;;;6209046;28;88924;-69
2023/06/11 08:58:33;;;;;;;7.55;6.93;;;23.40;93.90;;;;;;6209741;28;88142;-69
2023/06/11 09:01:35;;;;;;;7.63;7.03;;;23.40;93.90;;;;;;6208431;28;88990;-69
2023/06/11 09:04:43;;;;;;;7.50;6.88;;;23.40;93.90;;;;;;6209832;28;88103;-69
2023/06/11 09:07:49;;;;;;;7.72;7.03;;;23.40;93.90;;;;;;6209252;28;88279;-69
2023/06/11 09:10:52;;;;;;;7.60;7.00;;;23.40;93.90;;;;;;6189618;28;89087;-70
2023/06/11 09:13:56;;;;;;;7.82;7.13;;;23.40;93.90;;;;;;6210062;28;89320;-69
2023/06/11 09:16:58;;;;;;;7.82;7.13;;;23.40;93.90;;;;;;6197480;28;90381;-69
2023/06/11 09:20:05;;;;;;;7.63;6.93;;;23.40;93.90;;;;;;6201718;28;89178;-70
2023/06/11 09:23:07;;;;;;;8.73;7.93;;;23.40;93.90;;;;;;6208557;28;89325;-69
2023/06/11 09:26:09;;;;;;;8.07;7.38;;;23.40;93.90;;;;;;6208749;28;89057;-69
2023/06/11 09:29:11;;;;;;;8.10;7.35;;;23.40;93.90;;;;;;6208076;28;88073;-69
2023/06/11 09:32:14;;;;;;;7.53;6.93;;;23.40;93.90;;;;;;6209704;28;89350;-69
2023/06/11 09:35:17;;;;;;;7.72;7.13;;;23.40;93.90;;;;;;6208515;28;88291;-69
2023/06/11 09:38:20;;;;;;;8.13;7.43;;;23.40;93.90;;;;;;6208388;28;88334;-69
2023/06/11 09:41:23;;;;;;;8.20;7.50;;;23.40;93.90;;;;;;6203143;28;89384;-69
2023/06/11 09:44:27;;;;;;;8.15;7.45;;;23.40;93.90;;;;;;6197228;28;89158;-69
2023/06/11 09:47:31;;;;;;;8.25;7.43;;;23.40;93.90;;;;;;6197811;28;89948;-69
2023/06/11 09:50:35;;;;;;;8.57;7.78;;;23.40;93.90;;;;;;6208205;28;89128;-69
2023/06/11 09:53:39;;;;;;;7.63;7.03;;;23.40;93.80;;;;;;6209192;28;89305;-69
2023/06/11 09:56:42;;;;;;;7.97;7.30;;;23.40;93.90;;;;;;6202418;28;88415;-69
2023/06/11 09:59:46;;;;;;;7.57;6.97;;;23.40;93.80;;;;;;6208204;28;88757;-69
2023/06/11 10:02:48;;;;;;;7.82;7.15;;;23.40;93.90;;;;;;6208140;28;88989;-69
2023/06/11 10:05:52;;;;;;;8.10;7.40;;;23.40;93.90;;;;;;6207345;28;89149;-69
2023/06/11 10:08:56;;;;;;;8.50;7.70;;;23.40;93.90;;;;;;6207646;28;88246;-68
2023/06/11 10:11:59;;;;;;;8.02;7.32;;;23.40;93.90;;;;;;6207356;28;89363;-69
2023/06/11 10:15:04;;;;;;;8.10;7.40;;;23.40;93.90;;;;;;6206578;28;89023;-69
2023/06/11 10:18:13;;;;;;;8.40;7.57;;;23.40;93.90;;;;;;6193836;28;88878;-69
2023/06/11 10:21:17;;;;;;;7.97;7.28;;;23.40;93.90;;;;;;6197904;28;89046;-69
2023/06/11 10:24:24;;;;;;;7.93;7.22;;;23.40;93.90;;;;;;6206355;28;89436;-69
2023/06/11 10:27:35;;;;;;;7.78;7.07;;;23.50;94.00;;;;;;6206749;28;89221;-69
2023/06/11 10:30:37;;;;;;;7.75;7.07;;;23.40;94.00;;;;;;6198452;28;87968;-69
2023/06/11 10:33:46;;;;;;;8.07;7.38;;;23.40;94.00;;;;;;6203723;28;88174;-69
2023/06/11 10:36:50;;;;;;;8.00;7.30;;;23.40;93.90;;;;;;6206733;28;89138;-69
2023/06/11 10:39:54;;;;;;;7.90;7.10;;;23.40;94.00;;;;;;6206786;28;88399;-69
2023/06/11 10:42:56;;;;;;;8.30;7.57;;;23.40;94.00;;;;;;6206690;28;88122;-69
2023/06/11 10:46:02;;;;;;;7.90;7.25;;;23.40;94.00;;;;;;6207607;28;89161;-69
2023/06/11 10:49:13;;;;;;;8.48;7.68;;;23.40;94.00;;;;;;6207092;28;89919;-69
2023/06/11 10:52:17;;;;;;;7.70;7.00;;;23.40;93.90;;;;;;6203448;28;89171;-69
2023/06/11 10:55:21;;;;;;;7.63;6.95;;;23.40;94.00;;;;;;6207629;28;89106;-69
2023/06/11 10:58:23;;;;;;;8.25;7.45;;;23.40;94.00;;;;;;6199809;28;89057;-69
2023/06/11 11:01:25;;;;;;;7.63;6.93;;;23.40;94.10;;;;;;6197860;28;89070;-69
2023/06/11 11:04:28;;;;;;;7.82;7.13;;;23.40;94.10;;;;;;6205369;28;89135;-69
2023/06/11 11:07:33;;;;;;;7.60;6.90;;;23.40;94.10;;;;;;6205838;28;89268;-69
2023/06/11 11:10:35;;;;;;;7.50;6.80;;;23.40;94.00;;;;;;6200391;28;88666;-69
2023/06/11 11:13:37;;;;;;;7.88;7.18;;;23.50;94.00;;;;;;6199975;28;89207;-69
2023/06/11 11:16:40;;;;;;;7.53;6.90;;;23.40;94.00;;;;;;6205945;28;89204;-69
2023/06/11 11:19:42;;;;;;;8.27;7.47;;;23.40;94.00;;;;;;6206075;28;90095;-69
2023/06/11 11:22:51;;;;;;;7.70;7.07;;;23.40;94.00;;;;;;6206869;28;87934;-69
2023/06/11 11:25:53;;;;;;;7.35;6.65;;;23.40;94.00;;;;;;6205793;28;88865;-69
2023/06/11 11:28:55;;;;;;;7.25;6.57;;;23.40;94.20;;;;;;6205335;28;89037;-69
2023/06/11 11:31:59;;;;;;;7.57;6.88;;;23.40;94.00;;;;;;6205667;28;88110;-69
2023/06/11 11:35:03;;;;;;;7.20;6.60;;;23.40;94.00;;;;;;6206253;28;90360;-69
2023/06/11 11:38:07;;;;;;;7.55;6.90;;;23.40;94.00;;;;;;6205573;28;89098;-69
2023/06/11 11:41:09;;;;;;;7.80;7.10;;;23.40;94.00;;;;;;6205534;28;88313;-68
2023/06/11 11:44:11;;;;;;;8.20;7.40;;;23.40;94.00;;;;;;6193247;28;89046;-69
2023/06/11 11:47:18;;;;;;;7.35;6.75;;;23.40;94.00;;;;;;6207077;28;89114;-69
2023/06/11 11:50:22;;;;;;;7.65;6.97;;;23.40;94.00;;;;;;6194225;28;89813;-69
2023/06/11 11:53:29;;;;;;;7.30;6.70;;;23.40;94.00;;;;;;6205910;28;88917;-69
2023/06/11 11:56:33;;;;;;;7.32;6.72;;;23.40;94.10;;;;;;6206108;28;89245;-69
2023/06/11 11:59:38;;;;;;;7.35;6.65;;;23.40;94.00;;;;;;6205616;28;89132;-69
2023/06/11 12:02:43;;;;;;;6.97;6.32;;;23.40;94.00;;;;;;6205193;28;90089;-69
2023/06/11 12:05:56;;;;;;;6.80;6.20;;;23.40;94.00;;;;;;6203778;28;89130;-69
2023/06/11 12:08:59;;;;;;;6.93;6.32;;;23.50;94.00;;;;;;6205934;28;89087;-69
2023/06/11 12:12:01;;;;;;;7.10;6.50;;;23.40;94.00;;;;;;6205338;28;88402;-69
2023/06/11 12:15:04;;;;;;;7.50;6.85;;;23.50;94.00;;;;;;6204384;28;89086;-69
2023/06/11 12:18:06;;;;;;;7.28;6.43;;;23.50;94.00;;;;;;6204824;28;88015;-69
2023/06/11 12:21:08;;;;;;;6.82;6.22;;;23.50;94.10;;;;;;6205570;28;90054;-69
2023/06/11 12:24:14;;;;;;;7.63;6.93;;;23.50;94.10;;;;;;6204006;28;89252;-69
2023/06/11 12:27:16;;;;;;;6.85;6.25;;;23.50;94.00;;;;;;6198102;28;89078;-70
2023/06/11 12:30:19;;;;;;;7.57;6.88;;;23.40;94.00;;;;;;6200957;28;89038;-69
2023/06/11 12:33:21;;;;;;;7.03;6.43;;;23.50;94.10;;;;;;6206092;28;89078;-69
2023/06/11 12:36:22;;;;;;;7.15;6.45;;;23.40;94.00;;;;;;6198538;28;89090;-69
2023/06/11 12:39:26;;;;;;;7.10;6.50;;;23.40;94.10;;;;;;6204924;28;89739;-69
2023/06/11 12:42:29;;;;;;;7.18;6.57;;;23.40;94.10;;;;;;6203799;28;89022;-69
2023/06/11 12:45:32;;;;;;;7.10;6.50;;;23.40;94.10;;;;;;6204399;28;88304;-69
2023/06/11 12:48:34;;;;;;;7.25;6.65;;;23.40;94.10;;;;;;6204788;28;88232;-69
2023/06/11 12:51:38;;;;;;;7.10;6.50;;;23.50;94.10;;;;;;6204026;28;89966;-69
2023/06/11 12:54:42;;;;;;;6.80;6.20;;;23.50;94.00;;;;;;6203885;28;89129;-69
2023/06/11 12:57:44;;;;;;;7.10;6.50;;;23.40;94.00;;;;;;6203573;28;89038;-69
2023/06/11 13:00:46;;;;;;;7.07;6.47;;;23.40;93.90;;;;;;6204651;28;89360;-69
2023/06/11 13:03:48;;;;;;;7.13;6.50;;;23.50;94.00;;;;;;6204670;28;89062;-69
2023/06/11 13:06:50;;;;;;;7.07;6.40;;;23.50;94.00;;;;;;6202134;28;89091;-69
2023/06/11 13:09:53;;;;;;;7.22;6.57;;;23.50;94.00;;;;;;6194321;28;88885;-69
2023/06/11 13:12:56;;;;;;;6.80;6.20;;;23.40;94.00;;;;;;6205668;28;88344;-69
2023/06/11 13:15:58;;;;;;;6.97;6.38;;;23.50;94.00;;;;;;6194745;28;89199;-69
2023/06/11 13:19:02;;;;;;;7.00;6.30;;;23.50;94.00;;;;;;6209088;28;89151;-69
2023/06/11 13:22:06;;;;;;;6.80;6.20;;;23.50;94.00;;;;;;6208142;28;90091;-69
2023/06/11 13:25:10;;;;;;;7.07;6.47;;;23.50;94.00;;;;;;6208265;28;89078;-70
2023/06/11 13:28:12;;;;;;;6.85;6.25;;;23.50;94.00;;;;;;6208084;28;89300;-69
2023/06/11 13:31:14;;;;;;;6.57;5.97;;;23.40;94.00;;;;;;6208292;28;89088;-69
2023/06/11 13:34:16;;;;;;;6.13;5.63;;;23.40;93.90;;;;;;6208765;28;89033;-70
2023/06/11 13:37:19;;;;;;;6.80;6.20;;;23.40;93.90;;;;;;6208688;28;89548;-69
2023/06/11 13:40:22;;;;;;;6.57;5.97;;;23.40;93.90;;;;;;6197505;28;91879;-68
2023/06/11 13:43:24;;;;;;;6.70;6.10;;;23.50;93.90;;;;;;6208013;28;88613;-69
2023/06/11 13:46:26;;;;;;;6.57;5.97;;;23.50;93.80;;;;;;6208127;28;89288;-69
2023/06/11 13:49:29;;;;;;;6.82;6.18;;;23.50;93.80;;;;;;6207822;28;88308;-69
2023/06/11 13:52:31;;;;;;;6.32;5.80;;;23.40;93.80;;;;;;6207978;28;90316;-69
2023/06/11 13:55:34;;;;;;;6.95;6.25;;;23.40;93.80;;;;;;6206862;28;89150;-69
2023/06/11 13:58:36;;;;;;;7.03;6.32;;;23.50;93.80;;;;;;6207164;28;87998;-70
2023/06/11 14:01:39;;;;;;;6.20;5.65;;;23.50;93.70;;;;;;6209385;28;89061;-69
2023/06/11 14:04:41;;;;;;;6.38;5.85;;;23.50;93.70;;;;;;6207855;28;89646;-70
2023/06/11 14:07:43;;;;;;;6.82;6.22;;;23.50;93.70;;;;;;6208180;28;89131;-69
2023/06/11 14:10:47;;;;;;;6.00;5.50;;;23.40;93.70;;;;;;6208331;28;89054;-70
2023/06/11 14:13:49;;;;;;;6.20;5.70;;;23.50;93.70;;;;;;6207018;28;88395;-69
2023/06/11 14:16:51;;;;;;;6.55;5.95;;;23.40;93.60;;;;;;6205988;28;89071;-70
2023/06/11 14:19:53;;;;;;;5.93;5.43;;;23.40;93.60;;;;;;6208233;28;89083;-70
2023/06/11 14:22:55;;;;;;;6.55;5.90;;;23.50;93.70;;;;;;6207371;28;90053;-70
2023/06/11 14:25:59;;;;;;;6.90;6.03;;;23.40;93.60;;;;;;6205655;28;89142;-70
2023/06/11 14:29:00;;;;;;;5.60;5.10;;;23.50;93.70;;;;;;6196256;28;89346;-69
2023/06/11 14:32:03;;;;;;;6.10;5.60;;;23.50;93.60;;;;;;6206788;28;89054;-70
2023/06/11 14:35:06;;;;;;;5.93;5.43;;;23.40;93.60;;;;;;6208201;28;89344;-70
2023/06/11 14:38:08;;;;;;;5.97;5.47;;;23.40;93.60;;;;;;6207149;28;89140;-69
2023/06/11 14:41:13;;;;;;;6.35;5.75;;;23.50;93.60;;;;;;6205842;28;89191;-70
2023/06/11 14:44:15;;;;;;;5.55;5.15;;;23.50;93.60;;;;;;6207066;28;88356;-70
2023/06/11 14:47:17;;;;;;;6.25;5.75;;;23.50;93.60;;;;;;6206573;28;88770;-70
2023/06/11 14:50:19;;;;;;;6.40;5.80;;;23.50;93.60;;;;;;6198029;28;89042;-70
2023/06/11 14:53:21;;;;;;;6.40;5.75;;;23.50;93.60;;;;;;6205827;28;89941;-70
2023/06/11 14:56:25;;;;;;;6.25;5.70;;;23.50;93.60;;;;;;6205943;28;89530;-70
2023/06/11 14:59:27;;;;;;;6.13;5.63;;;23.50;93.60;;;;;;6206223;28;89146;-70
2023/06/11 15:02:34;;;;;;;5.97;5.47;;;23.50;93.60;;;;;;6206938;28;90300;-70
2023/06/11 15:05:36;;;;;;;5.38;4.97;;;23.50;93.60;;;;;;6206892;28;89281;-70
2023/06/11 15:08:38;;;;;;;5.75;5.30;;;23.50;93.50;;;;;;6206639;28;89491;-70
2023/06/11 15:11:41;;;;;;;6.43;5.80;;;23.50;93.50;;;;;;6205707;28;88981;-70
2023/06/11 15:14:43;;;;;;;6.10;5.53;;;23.50;93.50;;;;;;6206640;28;88356;-69
2023/06/11 15:17:45;;;;;;;6.03;5.53;;;23.50;93.50;;;;;;6195254;28;89507;-70
2023/06/11 15:20:47;;;;;;;5.70;5.20;;;23.50;93.40;;;;;;6206191;28;89143;-70
2023/06/11 15:23:49;;;;;;;5.75;5.28;;;23.40;93.40;;;;;;6206152;28;90248;-69
2023/06/11 15:26:52;;;;;;;5.97;5.47;;;23.50;93.50;;;;;;6206213;28;89117;-69
2023/06/11 15:29:54;;;;;;;5.20;4.80;;;23.50;93.50;;;;;;6205851;28;89029;-69
2023/06/11 15:32:56;;;;;;;6.00;5.50;;;23.50;93.40;;;;;;6206371;28;89082;-69
2023/06/11 15:35:58;;;;;;;5.85;5.28;;;23.40;93.40;;;;;;6205522;28;89043;-69
2023/06/11 15:39:00;;;;;;;6.18;5.57;;;23.50;93.40;;;;;;6205633;28;89093;-69
2023/06/11 15:42:04;;;;;;;5.90;5.40;;;23.50;93.40;;;;;;6206876;28;89098;-69
2023/06/11 15:45:08;;;;;;;5.60;5.10;;;23.50;93.40;;;;;;6195330;28;88312;-69
2023/06/11 15:48:10;;;;;;;5.75;5.25;;;23.50;93.40;;;;;;6193604;28;89068;-69
2023/06/11 15:51:12;;;;;;;5.65;5.15;;;23.50;93.40;;;;;;6206409;28;88981;-69